createdAt,value
2023-05-16T00:00:28.411Z,17.00
2023-05-16T00:05:31.517Z,17.00
2023-05-16T00:10:34.778Z,16.90
2023-05-16T00:15:39.723Z,17.00
2023-05-16T00:20:43.084Z,16.90
2023-05-16T00:25:46.974Z,17.00
2023-05-16T00:30:49.064Z,16.90
2023-05-16T00:35:51.726Z,16.90
2023-05-16T00:40:53.834Z,16.90
2023-05-16T00:45:58.091Z,16.90
2023-05-16T00:51:01.401Z,16.80
2023-05-16T00:56:03.540Z,16.70
2023-05-16T01:01:06.367Z,16.70
2023-05-16T01:06:08.498Z,16.80
2023-05-16T01:11:27.013Z,16.80
2023-05-16T01:16:28.922Z,16.80
2023-05-16T01:21:48.543Z,16.80
2023-05-16T01:26:51.757Z,16.80
2023-05-16T01:31:53.753Z,16.60
2023-05-16T01:37:32.396Z,16.40
2023-05-16T01:42:42.698Z,16.40
2023-05-16T01:47:51.586Z,16.40
2023-05-16T01:53:04.044Z,16.40
2023-05-16T01:58:08.714Z,16.40
2023-05-16T02:03:10.796Z,16.40
2023-05-16T02:08:13.765Z,16.40
2023-05-16T02:13:15.805Z,16.50
2023-05-16T02:18:18.824Z,16.60
2023-05-16T02:23:20.675Z,16.60
2023-05-16T02:28:22.995Z,16.50
2023-05-16T02:33:27.103Z,16.30
2023-05-16T02:38:29.046Z,16.10
2023-05-16T02:43:31.264Z,15.90
2023-05-16T02:48:33.172Z,15.90
2023-05-16T02:53:35.038Z,15.90
2023-05-16T02:58:36.987Z,15.90
2023-05-16T03:03:39.033Z,16.00
2023-05-16T03:08:41.595Z,16.10
2023-05-16T03:13:43.456Z,16.10
2023-05-16T03:18:45.495Z,16.20
2023-05-16T03:23:47.480Z,16.30
2023-05-16T03:28:49.557Z,16.30
2023-05-16T03:33:51.533Z,16.20
2023-05-16T03:38:53.551Z,16.10
2023-05-16T03:43:55.621Z,16.00
2023-05-16T03:48:57.615Z,15.90
2023-05-16T03:53:59.551Z,15.90
2023-05-16T03:59:01.578Z,15.80
2023-05-16T04:04:03.721Z,15.70
2023-05-16T04:09:06.635Z,15.80
2023-05-16T04:14:08.666Z,15.80
2023-05-16T04:19:10.627Z,15.80
2023-05-16T04:24:12.750Z,15.70
2023-05-16T04:29:14.759Z,15.70
2023-05-16T04:34:16.904Z,15.70
2023-05-16T04:39:18.887Z,15.80
2023-05-16T04:44:21.316Z,15.70
2023-05-16T04:49:23.495Z,15.70
2023-05-16T04:54:26.530Z,15.70
2023-05-16T04:59:28.434Z,15.70
2023-05-16T05:04:32.616Z,15.80
2023-05-16T05:09:34.577Z,15.80
2023-05-16T05:14:36.452Z,15.90
2023-05-16T05:19:38.453Z,16.00
2023-05-16T05:24:40.778Z,16.00
2023-05-16T05:29:42.794Z,16.00
2023-05-16T05:34:45.082Z,16.00
2023-05-16T05:39:47.259Z,16.10
2023-05-16T05:44:50.065Z,16.10
2023-05-16T05:49:52.335Z,16.20
2023-05-16T05:54:54.744Z,16.10
2023-05-16T05:59:56.811Z,16.20
2023-05-16T06:05:01.473Z,16.20
2023-05-16T06:10:08.410Z,16.20
2023-05-16T06:15:11.114Z,16.30
2023-05-16T06:20:13.405Z,16.30
2023-05-16T06:25:15.517Z,16.30
2023-05-16T06:30:17.594Z,16.40
2023-05-16T06:35:19.462Z,16.50
2023-05-16T06:40:21.491Z,16.50
2023-05-16T06:45:23.496Z,16.70
2023-05-16T06:50:25.389Z,16.80
2023-05-16T06:55:27.616Z,16.90
2023-05-16T07:00:29.638Z,17.00
2023-05-16T07:05:31.587Z,17.10
2023-05-16T07:10:33.536Z,17.20
2023-05-16T07:15:35.659Z,17.30
2023-05-16T07:20:37.629Z,17.30
2023-05-16T07:25:39.800Z,17.40
2023-05-16T07:30:41.742Z,17.50
2023-05-16T07:35:43.932Z,17.60
2023-05-16T07:40:46.022Z,17.60
2023-05-16T07:45:48.018Z,17.70
2023-05-16T07:50:50.048Z,17.80
2023-05-16T07:55:52.088Z,17.90
2023-05-16T08:00:54.055Z,18.00
2023-05-16T08:05:56.105Z,18.20
2023-05-16T08:10:58.138Z,18.30
2023-05-16T08:16:00.154Z,18.50
2023-05-16T08:21:02.287Z,18.70
2023-05-16T08:26:04.357Z,18.80
2023-05-16T08:31:06.369Z,18.90
2023-05-16T08:36:10.161Z,19.00
2023-05-16T08:41:12.250Z,19.00
2023-05-16T08:46:14.280Z,19.10
2023-05-16T08:51:18.870Z,19.00
2023-05-16T08:56:22.404Z,19.00
2023-05-16T09:01:24.336Z,19.00
2023-05-16T09:06:26.948Z,19.10
2023-05-16T09:11:29.204Z,19.10
2023-05-16T09:16:31.445Z,19.20
2023-05-16T09:21:34.972Z,19.20
2023-05-16T09:26:39.154Z,19.00
2023-05-16T09:31:41.293Z,18.90
2023-05-16T09:36:44.115Z,18.80
2023-05-16T09:41:46.103Z,18.90
2023-05-16T09:46:48.175Z,18.90
2023-05-16T09:51:50.204Z,18.80
2023-05-16T09:56:52.861Z,18.90
2023-05-16T10:01:57.225Z,18.70
2023-05-16T10:07:01.956Z,18.60
2023-05-16T10:12:08.299Z,18.50
2023-05-16T10:17:14.319Z,18.40
2023-05-16T10:22:17.520Z,18.20
2023-05-16T10:27:38.336Z,18.00
2023-05-16T10:39:18.693Z,17.70
2023-05-16T10:50:48.364Z,17.30
2023-05-16T11:02:55.240Z,17.10
2023-05-16T11:13:57.662Z,16.80
2023-05-16T11:19:10.173Z,16.70
2023-05-16T11:24:34.839Z,16.60
2023-05-16T11:29:48.980Z,16.70
2023-05-16T11:35:00.381Z,16.70
2023-05-16T11:45:29.393Z,16.60
2023-05-16T11:50:39.133Z,16.70
2023-05-16T12:12:13.103Z,16.90
2023-05-16T12:17:15.557Z,16.90
2023-05-16T12:22:18.835Z,16.90
2023-05-16T12:27:26.369Z,17.20
2023-05-16T12:32:28.766Z,17.30
2023-05-16T12:37:33.663Z,17.40
2023-05-16T12:42:38.512Z,17.50
2023-05-16T12:47:40.722Z,17.70
2023-05-16T12:52:55.149Z,17.70
2023-05-16T12:58:02.048Z,17.70
2023-05-16T13:03:10.526Z,17.70
2023-05-16T13:08:12.811Z,17.60
2023-05-16T13:13:25.018Z,17.60
2023-05-16T13:18:37.586Z,17.70
2023-05-16T13:23:45.361Z,17.70
2023-05-16T13:28:47.550Z,17.80
2023-05-16T13:33:49.781Z,18.00
2023-05-16T13:38:52.427Z,18.10
2023-05-16T13:43:54.518Z,18.10
2023-05-16T13:48:56.750Z,18.30
2023-05-16T13:53:58.965Z,18.20
2023-05-16T13:59:05.740Z,18.00
2023-05-16T14:04:09.736Z,17.90
2023-05-16T14:09:13.464Z,17.90
2023-05-16T14:14:15.879Z,17.90
2023-05-16T14:19:19.590Z,17.90
2023-05-16T14:24:22.508Z,18.00
2023-05-16T14:29:25.480Z,18.00
2023-05-16T14:34:27.602Z,17.90
2023-05-16T14:39:29.626Z,17.80
2023-05-16T14:44:31.732Z,17.80
2023-05-16T14:49:33.771Z,17.80
2023-05-16T14:54:36.859Z,17.70
2023-05-16T14:59:38.965Z,17.70
2023-05-16T15:04:41.085Z,17.70
2023-05-16T15:09:43.146Z,17.50
2023-05-16T15:14:46.373Z,17.30
2023-05-16T15:19:49.184Z,17.10
2023-05-16T15:24:51.239Z,17.00
2023-05-16T15:29:53.311Z,16.90
2023-05-16T15:34:56.441Z,17.00
2023-05-16T15:39:59.740Z,16.90
2023-05-16T15:45:03.703Z,16.80
2023-05-16T15:50:06.350Z,16.70
2023-05-16T15:55:08.917Z,16.70
2023-05-16T16:00:11.932Z,16.80
2023-05-16T16:05:13.886Z,16.80
2023-05-16T16:10:16.091Z,16.70
2023-05-16T16:15:19.769Z,16.70
2023-05-16T16:20:21.973Z,16.70
2023-05-16T16:25:24.150Z,16.60
2023-05-16T16:30:27.239Z,16.60
2023-05-16T16:35:29.645Z,16.50
2023-05-16T16:40:31.940Z,16.40
2023-05-16T16:45:34.066Z,16.30
2023-05-16T16:50:36.100Z,16.10
2023-05-16T16:55:40.712Z,16.00
2023-05-16T17:00:43.353Z,16.00
2023-05-16T17:05:45.440Z,16.00
2023-05-16T17:10:47.662Z,15.80
2023-05-16T17:15:49.708Z,15.60
2023-05-16T17:20:53.641Z,15.50
2023-05-16T17:25:55.706Z,15.40
2023-05-16T17:30:57.747Z,15.30
2023-05-16T17:35:59.704Z,15.30
2023-05-16T17:41:01.852Z,15.30
2023-05-16T17:46:04.065Z,15.20
2023-05-16T17:51:06.926Z,15.20
2023-05-16T17:56:09.293Z,15.00
2023-05-16T18:01:11.529Z,14.90
2023-05-16T18:06:13.684Z,14.90
2023-05-16T18:11:18.387Z,14.80
2023-05-16T18:16:20.484Z,14.80
2023-05-16T18:21:22.894Z,14.80
2023-05-16T18:26:26.105Z,14.70
2023-05-16T18:31:28.158Z,14.70
2023-05-16T18:36:30.866Z,14.70
2023-05-16T18:41:33.623Z,14.70
2023-05-16T18:46:36.876Z,14.70
2023-05-16T18:51:43.645Z,14.70
2023-05-16T18:56:49.392Z,14.70
2023-05-16T19:02:01.056Z,14.70
2023-05-16T19:07:07.942Z,14.70
2023-05-16T19:12:15.128Z,14.70
2023-05-16T19:17:18.899Z,14.80
2023-05-16T19:22:23.777Z,14.80
2023-05-16T19:27:29.510Z,14.90
2023-05-16T19:32:36.145Z,14.80
2023-05-16T19:37:40.927Z,14.90
2023-05-16T19:42:44.590Z,14.90
2023-05-16T19:47:49.798Z,14.90
2023-05-16T19:52:52.939Z,15.00
2023-05-16T19:57:57.834Z,15.00
2023-05-16T20:03:02.012Z,15.20
2023-05-16T20:08:05.124Z,15.20
2023-05-16T20:13:11.142Z,15.10
2023-05-16T20:18:17.376Z,15.10
2023-05-16T20:23:23.105Z,15.00
2023-05-16T20:28:26.995Z,15.00
2023-05-16T20:33:30.923Z,15.00
2023-05-16T20:38:33.971Z,15.10
2023-05-16T20:43:38.809Z,15.00
2023-05-16T20:48:41.961Z,14.90
2023-05-16T20:53:46.906Z,15.00
2023-05-16T20:58:49.939Z,15.00
2023-05-16T21:03:56.323Z,14.90
2023-05-16T21:08:58.904Z,15.00
2023-05-16T21:14:01.609Z,15.00
2023-05-16T21:19:04.767Z,15.00
2023-05-16T21:24:07.489Z,14.90
2023-05-16T21:29:10.033Z,14.70
2023-05-16T21:34:15.266Z,14.70
2023-05-16T21:39:18.826Z,14.80
2023-05-16T21:44:22.439Z,14.80
2023-05-16T21:49:25.247Z,14.70
2023-05-16T21:54:28.061Z,14.70
2023-05-16T21:59:31.474Z,14.80
2023-05-16T22:04:35.088Z,14.80
2023-05-16T22:09:38.062Z,14.80
2023-05-16T22:14:41.343Z,14.80
2023-05-16T22:19:44.192Z,14.80
2023-05-16T22:24:48.711Z,14.70
2023-05-16T22:29:53.359Z,14.80
2023-05-16T22:34:56.332Z,14.70
2023-05-16T22:40:00.298Z,14.70
2023-05-16T22:45:04.245Z,14.60
2023-05-16T22:50:13.031Z,14.70
2023-05-16T22:55:17.146Z,14.70
2023-05-16T23:00:25.181Z,14.60
2023-05-16T23:05:29.448Z,14.50
2023-05-16T23:10:33.942Z,14.50
2023-05-16T23:15:38.971Z,14.40
2023-05-16T23:20:43.304Z,14.30
2023-05-16T23:25:48.922Z,14.30
2023-05-16T23:30:53.326Z,14.30
2023-05-16T23:35:57.976Z,14.30
2023-05-16T23:41:01.547Z,14.30
2023-05-16T23:46:05.635Z,14.30
2023-05-16T23:51:09.367Z,14.30
2023-05-16T23:56:14.858Z,14.30
